• Join FlightAware (Why Join?)
  • Login
  • US Flag 
06:00PM EDT


 

Airport Tracker/Info


-or-


 

Live Flight TrackerFlight Track Log ✈ RPA3380 ✈ 30-Sep-2013 ✈ KPHL - KPIT

Flight Track Log - Related Links

Times and Time Zones

All times are in EDT time to prevent confusion due to time zone crossing. See the RPA3380 flight status page for this flight to view local times or setup timezone preferences in your user account.

Time Position Orientation Groundspeed Altitude Reporting Facility
EDT Latitude Longitude Course Direction KTS MPH feet Rate Location/Type
05:11PM 39.8667 -75.2833 282° West 156 180 800  Level Philadelphia TRACON
05:13PM 39.8517 -75.4542 264° West 229 264 5,800 2,340 Climbing New York Center
05:14PM 39.9385 -75.6985 270° West  Level Estimated
05:14PM 39.8736 -75.5314 290° West 242 278 8,500  Level New York Center
05:15PM 39.9547 -75.8131 270° West  Level Estimated
05:15PM 39.9069 -75.6367 292° West 273 314 10,700  Level New York Center
05:16PM 39.9709 -75.9277 282° West  Level Estimated
05:20PM 39.9120 -76.2730 292° West 100 115 19,100  Level FlightAware
05:21PM 39.9150 -76.3550 273° West 372 428 19,900 660 Climbing FlightAware
05:21PM 39.9180 -76.4410 273° West 372 428 20,000 60 Climbing FlightAware
05:22PM 39.9210 -76.5100 273° West 372 428 20,000  Level FlightAware
05:23PM 39.9240 -76.5800 273° West 372 428 20,000  Level FlightAware
05:23PM 39.9260 -76.6490 272° West 372 428 20,000  Level FlightAware
05:24PM 39.9290 -76.7170 273° West 372 428 20,000  Level FlightAware
05:24PM 39.9320 -76.7860 273° West 372 428 20,000 1,020 Level FlightAware
05:26PM 39.9453 -77.1281 273° West 402 463 22,000 840 Climbing Cleveland Center
05:27PM 39.9489 -77.2744 272° West 405 466 22,000  Level Cleveland Center
05:28PM 39.9544 -77.4178 273° West 401 461 22,000  Level Cleveland Center
05:29PM 39.9589 -77.5633 272° West 403 464 22,000  Level Cleveland Center
05:30PM 39.9622 -77.7078 272° West 402 463 22,000  Level Cleveland Center
05:31PM 39.9683 -77.8825 273° West 403 464 22,000  Level Cleveland Center
05:32PM 39.9711 -78.0286 271° West 404 465 22,000  Level Cleveland Center
05:33PM 39.9864 -78.1708 278° West 401 461 22,000  Level Cleveland Center
05:34PM 40.0083 -78.3214 281° West 396 456 22,000  Level Cleveland Center
05:35PM 40.0292 -78.4592 281° West 391 450 22,000  Level Cleveland Center
05:36PM 40.0492 -78.5994 281° West 391 450 22,000  Level Cleveland Center
05:37PM 40.0678 -78.7431 280° West 398 458 22,000 -180 Level Cleveland Center
05:38PM 40.0917 -78.9161 280° West 403 464 21,700 -1,200 Descending Cleveland Center
05:39PM 40.1114 -79.0611 280° West 407 468 19,600 -1,980 Descending Cleveland Center
05:40PM 40.1292 -79.1961 280° West 389 448 17,700 -1,920 Descending Cleveland Center
05:41PM 40.1464 -79.3289 280° West 377 434 15,700 -1,920 Descending Cleveland Center
05:42PM 40.1622 -79.4586 279° West 365 420 13,800 -1,800 Descending Cleveland Center
05:43PM 40.1794 -79.5797 281° West 346 398 12,000 -1,800 Descending Cleveland Center
05:44PM 40.1981 -79.6953 282° West 327 376 10,200 -1,500 Descending Cleveland Center
05:45PM 40.2700 -79.7814 318° Northwest 283 326 8,900 -1,500 Descending Cleveland Center
05:46PM 40.3281 -79.8475 319° Northwest 278 320 7,100 -1,680 Descending Cleveland Center
05:48PM 40.3822 -79.9083 319° Northwest 259 298 5,500 -1,500 Descending Cleveland Center
05:49PM 40.4331 -79.9683 318° Northwest 252 290 4,100 -900 Descending Cleveland Center
05:50PM 40.4808 -80.0356 313° West 231 266 3,700 -720 Descending Cleveland Center
05:51PM 40.4806 -80.1058 270° West 208 239 2,700 -900 Descending Cleveland Center
05:52PM 40.4839 -80.1594 275° West 171 197 1,900 -780 Descending Cleveland Center